createdAt,value
2022-09-02T00:00:06.640Z,2.58
2022-09-02T00:02:37.030Z,2.70
2022-09-02T00:05:07.747Z,2.72
2022-09-02T00:07:36.831Z,2.78
2022-09-02T00:10:05.563Z,2.78
2022-09-02T00:12:33.872Z,2.70
2022-09-02T00:15:02.184Z,2.75
2022-09-02T00:17:30.527Z,2.58
2022-09-02T00:19:58.779Z,2.60
2022-09-02T00:22:28.904Z,2.63
2022-09-02T00:24:57.149Z,2.78
2022-09-02T00:27:25.468Z,2.60
2022-09-02T00:29:54.700Z,2.67
2022-09-02T00:32:22.953Z,2.50
2022-09-02T00:34:51.395Z,2.83
2022-09-02T00:37:19.737Z,2.88
2022-09-02T00:39:49.873Z,2.85
2022-09-02T00:42:18.376Z,2.60
2022-09-02T00:44:46.787Z,3.00
2022-09-02T00:47:15.994Z,2.85
2022-09-02T00:49:47.767Z,3.00
2022-09-02T00:52:20.725Z,3.13
2022-09-02T00:54:54.961Z,2.60
2022-09-02T00:57:26.369Z,2.60
2022-09-02T01:00:02.725Z,2.72
2022-09-02T01:02:31.924Z,2.38
2022-09-02T01:05:03.991Z,2.70
2022-09-02T01:07:35.280Z,2.35
2022-09-02T01:10:06.853Z,2.78
2022-09-02T01:12:35.981Z,2.55
2022-09-02T01:15:06.895Z,2.85
2022-09-02T01:17:35.413Z,2.60
2022-09-02T01:20:07.959Z,2.80
2022-09-02T01:22:37.632Z,2.58
2022-09-02T01:25:12.253Z,2.63
2022-09-02T01:27:40.851Z,2.40
2022-09-02T01:30:11.501Z,2.95
2022-09-02T01:32:39.985Z,2.53
2022-09-02T01:35:09.481Z,2.60
2022-09-02T01:37:39.814Z,2.63
2022-09-02T01:40:10.818Z,2.47
2022-09-02T01:42:40.252Z,2.43
2022-09-02T01:45:09.981Z,2.90
2022-09-02T01:47:38.747Z,2.55
2022-09-02T01:50:07.745Z,2.50
2022-09-02T01:52:36.243Z,2.55
2022-09-02T01:55:07.091Z,2.70
2022-09-02T01:57:36.231Z,2.83
2022-09-02T02:00:09.064Z,2.70
2022-09-02T02:02:40.902Z,2.88
2022-09-02T02:05:14.098Z,2.58
2022-09-02T02:07:43.327Z,2.78
2022-09-02T02:10:15.361Z,2.58
2022-09-02T02:12:44.034Z,2.83
2022-09-02T02:15:16.881Z,3.00
2022-09-02T02:17:45.508Z,2.60
2022-09-02T02:20:16.014Z,3.08
2022-09-02T02:22:44.904Z,2.53
2022-09-02T02:25:16.055Z,2.65
2022-09-02T02:27:45.296Z,3.05
2022-09-02T02:30:15.589Z,3.10
2022-09-02T02:32:47.058Z,3.10
2022-09-02T02:35:20.158Z,2.45
2022-09-02T02:37:50.546Z,2.80
2022-09-02T02:40:23.534Z,2.67
2022-09-02T02:42:54.170Z,2.88
2022-09-02T02:45:25.540Z,2.92
2022-09-02T02:47:55.007Z,2.65
2022-09-02T02:50:25.846Z,2.95
2022-09-02T02:52:54.940Z,3.05
2022-09-02T02:55:26.890Z,3.00
2022-09-02T02:57:55.474Z,3.00
2022-09-02T03:00:28.178Z,3.17
2022-09-02T03:02:57.167Z,2.90
2022-09-02T03:05:26.492Z,2.90
2022-09-02T03:07:55.146Z,2.97
2022-09-02T03:10:27.041Z,3.03
2022-09-02T03:12:55.865Z,2.97
2022-09-02T03:15:24.364Z,3.00
2022-09-02T03:17:56.317Z,3.28
2022-09-02T03:20:26.047Z,3.15
2022-09-02T03:23:00.233Z,3.20
2022-09-02T03:25:35.541Z,2.97
2022-09-02T03:28:10.156Z,3.05
2022-09-02T03:30:41.178Z,3.42
2022-09-02T03:33:10.597Z,3.33
2022-09-02T03:35:41.176Z,3.22
2022-09-02T03:38:10.756Z,3.40
2022-09-02T03:40:41.982Z,3.35
2022-09-02T03:43:10.385Z,3.20
2022-09-02T03:45:41.858Z,3.70
2022-09-02T03:48:14.200Z,3.72
2022-09-02T03:50:47.159Z,3.38
2022-09-02T03:53:23.259Z,3.67
2022-09-02T03:55:59.413Z,3.35
2022-09-02T04:00:59.750Z,3.85
2022-09-02T04:03:28.614Z,3.55
2022-09-02T04:05:56.940Z,3.60
2022-09-02T04:08:28.039Z,3.60
2022-09-02T04:11:06.992Z,3.55
2022-09-02T04:13:35.993Z,3.75
2022-09-02T04:16:10.539Z,3.60
2022-09-02T04:18:39.500Z,3.55
2022-09-02T04:21:08.106Z,3.65
2022-09-02T04:23:38.228Z,3.67
2022-09-02T04:26:10.571Z,3.72
2022-09-02T04:28:39.485Z,3.65
2022-09-02T04:31:09.801Z,3.72
2022-09-02T04:33:38.994Z,3.53
2022-09-02T04:36:11.690Z,3.80
2022-09-02T04:38:42.120Z,3.55
2022-09-02T04:41:15.678Z,3.63
2022-09-02T04:43:44.403Z,3.78
2022-09-02T04:46:15.912Z,3.95
2022-09-02T04:48:47.300Z,3.70
2022-09-02T04:51:19.215Z,4.03
2022-09-02T04:53:50.173Z,3.85
2022-09-02T04:56:25.139Z,4.32
2022-09-02T04:58:54.817Z,4.25
2022-09-02T05:01:27.336Z,3.95
2022-09-02T05:03:57.873Z,3.80
2022-09-02T05:06:30.360Z,4.25
2022-09-02T05:09:01.971Z,4.00
2022-09-02T05:11:36.410Z,3.67
2022-09-02T05:14:06.856Z,4.18
2022-09-02T05:16:40.121Z,4.45
2022-09-02T05:19:13.784Z,4.22
2022-09-02T05:21:47.713Z,3.92
2022-09-02T05:24:26.651Z,3.78
2022-09-02T05:26:58.867Z,3.65
2022-09-02T05:29:28.088Z,4.22
2022-09-02T05:31:58.272Z,4.35
2022-09-02T05:34:28.077Z,4.15
2022-09-02T05:36:59.988Z,4.20
2022-09-02T05:39:31.832Z,4.22
2022-09-02T05:42:02.381Z,4.50
2022-09-02T05:44:32.104Z,3.88
2022-09-02T05:47:01.764Z,4.57
2022-09-02T05:49:30.301Z,4.40
2022-09-02T05:52:10.196Z,4.70
2022-09-02T05:54:45.159Z,4.07
2022-09-02T05:57:19.229Z,4.35
2022-09-02T06:00:17.334Z,4.60
2022-09-02T06:02:55.582Z,4.47
2022-09-02T06:05:31.483Z,4.38
2022-09-02T06:08:08.092Z,4.60
2022-09-02T06:10:43.214Z,4.20
2022-09-02T06:13:15.911Z,3.95
2022-09-02T06:15:45.370Z,4.83
2022-09-02T06:18:15.608Z,4.32
2022-09-02T06:20:48.617Z,4.65
2022-09-02T06:23:18.390Z,4.30
2022-09-02T06:25:49.387Z,4.40
2022-09-02T06:28:19.704Z,4.20
2022-09-02T06:30:50.565Z,4.07
2022-09-02T06:33:23.963Z,3.78
2022-09-02T06:35:53.372Z,4.35
2022-09-02T06:38:21.966Z,4.22
2022-09-02T06:40:54.762Z,4.07
2022-09-02T06:43:42.226Z,4.28
2022-09-02T06:48:54.616Z,4.35
2022-09-02T06:51:27.326Z,4.15
2022-09-02T06:53:57.018Z,3.92
2022-09-02T06:56:28.898Z,3.65
2022-09-02T06:58:58.922Z,3.92
2022-09-02T07:01:43.495Z,3.60
2022-09-02T07:04:30.480Z,4.13
2022-09-02T07:06:59.316Z,3.75
2022-09-02T07:09:32.153Z,3.55
2022-09-02T07:12:08.357Z,3.83
2022-09-02T07:14:45.061Z,3.70
2022-09-02T07:17:17.712Z,3.65
2022-09-02T07:19:49.872Z,3.63
2022-09-02T07:22:18.783Z,3.78
2022-09-02T07:24:48.266Z,3.60
2022-09-02T07:27:16.752Z,3.30
2022-09-02T07:29:47.853Z,3.65
2022-09-02T07:32:17.089Z,3.50
2022-09-02T07:34:45.760Z,3.65
2022-09-02T07:37:15.119Z,4.13
2022-09-02T07:39:46.175Z,3.85
2022-09-02T07:42:17.683Z,3.40
2022-09-02T07:44:47.511Z,3.92
2022-09-02T07:47:16.751Z,3.20
2022-09-02T07:52:36.156Z,3.42
2022-09-02T07:55:04.646Z,3.72
2022-09-02T07:57:33.892Z,3.70
2022-09-02T08:00:05.488Z,3.42
2022-09-02T08:02:42.695Z,3.80
2022-09-02T08:05:15.122Z,3.80
2022-09-02T08:07:43.700Z,3.20
2022-09-02T08:10:13.409Z,3.60
2022-09-02T08:12:44.124Z,3.35
2022-09-02T08:15:15.510Z,3.30
2022-09-02T08:20:14.150Z,3.03
2022-09-02T08:22:42.704Z,3.08
2022-09-02T08:25:11.788Z,3.13
2022-09-02T08:27:41.268Z,3.13
2022-09-02T08:30:10.995Z,2.97
2022-09-02T08:32:41.268Z,3.13
2022-09-02T08:35:11.370Z,2.60
2022-09-02T08:37:39.998Z,2.75
2022-09-02T08:40:14.314Z,2.85
2022-09-02T08:42:49.711Z,2.88
2022-09-02T08:45:25.500Z,2.70
2022-09-02T08:48:05.113Z,2.42
2022-09-02T08:50:35.045Z,2.80
2022-09-02T08:53:10.904Z,2.38
2022-09-02T08:55:46.930Z,2.10
2022-09-02T08:58:19.904Z,2.38
2022-09-02T09:00:55.947Z,2.47
2022-09-02T09:03:30.027Z,2.53
2022-09-02T09:06:05.675Z,2.17
2022-09-02T09:08:42.906Z,1.60
2022-09-02T09:11:22.117Z,1.95
2022-09-02T09:14:14.033Z,1.90
2022-09-02T09:19:16.535Z,2.58
2022-09-02T09:21:45.500Z,2.88
2022-09-02T09:24:33.725Z,1.90
2022-09-02T09:27:03.755Z,1.90
2022-09-02T09:29:33.789Z,1.67
2022-09-02T09:32:02.650Z,1.88
2022-09-02T09:35:07.163Z,1.70
2022-09-02T09:37:38.359Z,2.00
2022-09-02T09:40:31.962Z,1.58
2022-09-02T09:43:15.807Z,1.70
2022-09-02T09:45:47.301Z,2.03
2022-09-02T09:48:22.909Z,1.90
2022-09-02T09:51:12.958Z,1.95
2022-09-02T09:53:41.509Z,1.90
2022-09-02T09:56:25.503Z,2.03
2022-09-02T09:58:53.918Z,1.77
2022-09-02T10:01:24.363Z,1.85
2022-09-02T10:03:54.798Z,2.08
2022-09-02T10:06:26.359Z,1.77
2022-09-02T10:08:56.876Z,1.90
2022-09-02T10:11:27.367Z,1.70
2022-09-02T10:14:00.868Z,1.92
2022-09-02T10:16:42.419Z,1.80
2022-09-02T10:19:17.405Z,1.80
2022-09-02T10:22:03.127Z,1.90
2022-09-02T10:24:51.324Z,1.70
2022-09-02T10:27:36.995Z,1.75
2022-09-02T10:30:08.108Z,1.70
2022-09-02T10:32:56.719Z,1.90
2022-09-02T10:35:37.413Z,1.60
2022-09-02T10:38:23.453Z,1.65
2022-09-02T10:40:59.192Z,1.67
2022-09-02T10:43:42.086Z,1.60
2022-09-02T10:46:11.525Z,1.95
2022-09-02T10:48:50.283Z,1.75
2022-09-02T10:51:29.013Z,1.33
2022-09-02T10:54:14.411Z,1.70
2022-09-02T10:56:50.676Z,1.42
2022-09-02T10:59:23.680Z,1.50
2022-09-02T11:01:56.224Z,1.60
2022-09-02T11:04:37.250Z,1.60
2022-09-02T11:07:07.132Z,1.75
2022-09-02T11:09:40.212Z,1.58
2022-09-02T11:12:16.013Z,1.75
2022-09-02T11:14:56.395Z,1.30
2022-09-02T11:17:27.793Z,1.60
2022-09-02T11:20:02.170Z,1.40
2022-09-02T11:22:40.053Z,1.35
2022-09-02T11:25:17.269Z,1.30
2022-09-02T11:27:49.055Z,1.38
2022-09-02T11:30:21.024Z,1.55
2022-09-02T11:32:54.818Z,1.55
2022-09-02T11:35:27.522Z,1.65
2022-09-02T11:38:02.702Z,1.23
2022-09-02T11:40:40.082Z,1.52
2022-09-02T11:43:29.152Z,1.48
2022-09-02T11:46:28.895Z,1.55
2022-09-02T11:49:38.489Z,1.10
2022-09-02T11:52:27.090Z,1.58
2022-09-02T11:55:06.651Z,1.60
2022-09-02T11:57:41.353Z,1.40
2022-09-02T12:00:15.043Z,1.58
2022-09-02T12:02:46.948Z,1.40
2022-09-02T12:05:46.431Z,1.30
2022-09-02T12:08:53.889Z,1.25
2022-09-02T12:11:53.197Z,1.38
2022-09-02T12:15:07.593Z,1.52
2022-09-02T12:17:57.453Z,1.48
2022-09-02T12:21:06.260Z,1.63
2022-09-02T12:24:08.564Z,1.45
2022-09-02T12:29:33.970Z,1.60
2022-09-02T12:32:02.818Z,1.40
2022-09-02T12:35:08.407Z,1.27
2022-09-02T12:37:55.187Z,1.52
2022-09-02T12:40:32.125Z,1.40
2022-09-02T12:43:05.800Z,1.33
2022-09-02T12:45:35.210Z,1.30
2022-09-02T12:48:10.591Z,1.45
2022-09-02T12:50:56.071Z,1.60
2022-09-02T12:53:43.564Z,1.42
2022-09-02T12:56:22.688Z,1.90
2022-09-02T12:58:53.176Z,1.88
2022-09-02T13:01:31.070Z,1.77
2022-09-02T13:04:35.090Z,1.73
2022-09-02T13:07:42.782Z,1.35
2022-09-02T13:10:51.631Z,1.40
2022-09-02T13:13:49.027Z,1.48
2022-09-02T13:16:23.123Z,1.63
2022-09-02T13:19:16.568Z,2.20
2022-09-02T13:22:14.545Z,1.48
2022-09-02T13:25:13.238Z,1.23
2022-09-02T13:28:07.869Z,1.50
2022-09-02T13:31:05.070Z,1.48
2022-09-02T13:33:34.234Z,1.40
2022-09-02T13:36:02.741Z,2.20
2022-09-02T13:38:32.905Z,1.63
2022-09-02T13:41:02.652Z,1.70
2022-09-02T13:43:31.148Z,1.95
2022-09-02T13:46:02.664Z,2.28
2022-09-02T13:48:34.193Z,2.10
2022-09-02T13:51:13.029Z,1.60
2022-09-02T13:53:53.852Z,1.77
2022-09-02T13:56:33.734Z,1.77
2022-09-02T13:59:02.026Z,1.42
2022-09-02T14:01:33.056Z,1.58
2022-09-02T14:06:41.289Z,1.92
2022-09-02T14:09:20.399Z,1.67
2022-09-02T14:11:51.127Z,1.77
2022-09-02T14:14:24.377Z,1.70
2022-09-02T14:16:53.364Z,1.60
2022-09-02T14:19:26.521Z,1.50
2022-09-02T14:21:57.411Z,1.90
2022-09-02T14:24:28.417Z,1.80
2022-09-02T14:26:59.457Z,1.35
2022-09-02T14:29:29.837Z,1.48
2022-09-02T14:32:12.449Z,1.85
2022-09-02T14:34:43.020Z,1.60
2022-09-02T14:37:25.586Z,1.38
2022-09-02T14:40:11.657Z,1.80
2022-09-02T14:42:55.023Z,1.60
2022-09-02T14:45:28.423Z,1.80
2022-09-02T14:47:59.788Z,1.58
2022-09-02T14:50:31.388Z,1.58
2022-09-02T14:55:48.149Z,1.63
2022-09-02T14:58:18.587Z,1.60
2022-09-02T15:00:48.744Z,2.00
2022-09-02T15:03:17.670Z,1.50
2022-09-02T15:05:46.542Z,1.50
2022-09-02T15:08:15.695Z,1.55
2022-09-02T15:10:45.152Z,1.85
2022-09-02T15:13:15.939Z,1.48
2022-09-02T15:15:46.056Z,1.47
2022-09-02T15:18:16.078Z,1.77
2022-09-02T15:20:44.314Z,1.58
2022-09-02T15:23:12.742Z,1.48
2022-09-02T15:25:41.690Z,1.40
2022-09-02T15:28:11.219Z,1.60
2022-09-02T15:30:39.980Z,1.65
2022-09-02T15:33:17.380Z,2.45
2022-09-02T15:35:46.819Z,1.80
2022-09-02T15:38:15.157Z,2.15
2022-09-02T15:40:44.185Z,1.80
2022-09-02T15:43:12.410Z,1.60
2022-09-02T15:45:47.137Z,1.55
2022-09-02T15:48:16.975Z,1.70
2022-09-02T15:50:46.627Z,1.55
2022-09-02T15:53:16.010Z,1.60
2022-09-02T15:55:44.516Z,1.35
2022-09-02T15:58:12.752Z,1.30
2022-09-02T16:00:43.960Z,1.73
2022-09-02T16:03:12.439Z,1.58
2022-09-02T16:05:43.368Z,1.60
2022-09-02T16:08:11.729Z,1.42
2022-09-02T16:10:40.418Z,1.35
2022-09-02T16:13:08.688Z,1.58
2022-09-02T16:15:36.914Z,1.63
2022-09-02T16:18:05.374Z,1.70
2022-09-02T16:20:33.550Z,1.35
2022-09-02T16:23:03.442Z,1.40
2022-09-02T16:25:31.747Z,1.40
2022-09-02T16:28:00.018Z,1.48
2022-09-02T16:30:29.973Z,1.30
2022-09-02T16:32:58.508Z,1.40
2022-09-02T16:35:26.858Z,1.50
2022-09-02T16:37:57.482Z,1.42
2022-09-02T16:40:27.300Z,1.40
2022-09-02T16:42:55.543Z,1.40
2022-09-02T16:45:23.798Z,1.70
2022-09-02T16:47:52.108Z,1.88
2022-09-02T16:50:20.313Z,1.88
2022-09-02T16:52:48.764Z,1.80
2022-09-02T16:55:18.714Z,2.05
2022-09-02T16:57:48.464Z,2.03
2022-09-02T17:00:17.903Z,1.63
2022-09-02T17:02:46.660Z,2.08
2022-09-02T17:05:17.442Z,1.85
2022-09-02T17:07:46.791Z,1.98
2022-09-02T17:10:15.067Z,1.88
2022-09-02T17:12:43.510Z,2.13
2022-09-02T17:15:13.495Z,1.95
2022-09-02T17:17:42.368Z,1.67
2022-09-02T17:20:13.140Z,2.10
2022-09-02T17:22:41.762Z,1.77
2022-09-02T17:25:10.594Z,1.42
2022-09-02T17:27:39.355Z,1.52
2022-09-02T17:30:10.903Z,1.55
2022-09-02T17:32:41.158Z,1.67
2022-09-02T17:35:11.338Z,1.50
2022-09-02T17:37:40.261Z,1.60
2022-09-02T17:40:33.154Z,1.50
2022-09-02T17:43:00.527Z,1.83
2022-09-02T17:45:28.770Z,1.70
2022-09-02T17:48:08.882Z,1.80
2022-09-02T17:50:46.780Z,1.67
2022-09-02T17:53:15.063Z,2.22
2022-09-02T17:55:43.848Z,1.90
2022-09-02T17:58:19.358Z,1.70
2022-09-02T18:00:50.286Z,1.75
2022-09-02T18:03:36.774Z,2.00
2022-09-02T18:06:12.449Z,1.90
2022-09-02T18:08:49.634Z,1.90
2022-09-02T18:11:18.066Z,1.80
2022-09-02T18:13:57.755Z,2.10
2022-09-02T18:16:36.851Z,2.20
2022-09-02T18:19:19.882Z,2.20
2022-09-02T18:22:04.527Z,2.70
2022-09-02T18:24:58.243Z,1.90
2022-09-02T18:27:40.754Z,2.40
2022-09-02T18:30:11.835Z,2.10
2022-09-02T18:35:38.621Z,2.30
2022-09-02T18:38:14.852Z,1.70
2022-09-02T18:40:50.097Z,1.80
2022-09-02T18:43:26.155Z,1.90
2022-09-02T18:45:57.618Z,1.67
2022-09-02T18:48:30.684Z,1.77
2022-09-02T18:51:06.050Z,1.92
2022-09-02T18:53:40.507Z,2.33
2022-09-02T18:56:11.524Z,2.00
2022-09-02T18:58:45.212Z,1.85
2022-09-02T19:01:22.074Z,1.80
2022-09-02T19:03:50.713Z,2.08
2022-09-02T19:06:22.004Z,1.80
2022-09-02T19:08:55.290Z,1.90
2022-09-02T19:11:25.757Z,1.90
2022-09-02T19:13:56.643Z,1.70
2022-09-02T19:16:27.346Z,1.65
2022-09-02T19:18:56.271Z,1.50
2022-09-02T19:21:35.332Z,1.75
2022-09-02T19:24:05.599Z,1.65
2022-09-02T19:26:34.594Z,1.70
2022-09-02T19:29:04.259Z,2.15
2022-09-02T19:31:32.965Z,1.98
2022-09-02T19:34:03.813Z,2.10
2022-09-02T19:36:34.387Z,1.50
2022-09-02T19:39:02.630Z,1.67
2022-09-02T19:41:30.842Z,1.80
2022-09-02T19:44:00.111Z,1.75
2022-09-02T19:47:07.018Z,1.70
2022-09-02T19:49:17.655Z,1.67
2022-09-02T19:51:47.499Z,1.83
2022-09-02T19:54:18.358Z,1.55
2022-09-02T19:56:46.802Z,1.80
2022-09-02T19:59:15.059Z,2.03
2022-09-02T20:01:43.374Z,1.73
2022-09-02T20:04:11.851Z,1.40
2022-09-02T20:06:40.582Z,1.80
2022-09-02T20:09:10.228Z,1.55
2022-09-02T20:11:41.042Z,1.77
2022-09-02T20:14:09.654Z,1.70
2022-09-02T20:16:38.050Z,1.90
2022-09-02T20:19:06.475Z,1.98
2022-09-02T20:21:43.181Z,1.63
2022-09-02T20:24:16.370Z,1.88
2022-09-02T20:26:54.058Z,1.88
2022-09-02T20:29:38.052Z,1.83
2022-09-02T20:36:06.391Z,1.85
2022-09-02T20:39:18.153Z,1.90
2022-09-02T20:41:56.943Z,1.88
2022-09-02T20:44:52.073Z,2.03
2022-09-02T20:47:45.632Z,2.15
2022-09-02T20:50:46.411Z,2.15
2022-09-02T20:53:32.649Z,2.47
2022-09-02T20:56:05.356Z,2.08
2022-09-02T20:58:43.651Z,2.08
2022-09-02T21:01:23.018Z,2.15
2022-09-02T21:03:58.747Z,1.80
2022-09-02T21:06:31.674Z,1.60
2022-09-02T21:09:06.000Z,2.10
2022-09-02T21:11:47.650Z,1.98
2022-09-02T21:14:21.879Z,2.08
2022-09-02T21:16:55.317Z,2.38
2022-09-02T21:19:30.370Z,2.10
2022-09-02T21:22:04.474Z,1.70
2022-09-02T21:24:38.470Z,2.00
2022-09-02T21:27:15.112Z,1.70
2022-09-02T21:29:48.936Z,2.35
2022-09-02T21:32:23.871Z,2.08
2022-09-02T21:34:56.298Z,1.80
2022-09-02T21:37:26.474Z,1.92
2022-09-02T21:39:58.262Z,1.80
2022-09-02T21:42:33.818Z,2.22
2022-09-02T21:45:15.137Z,2.25
2022-09-02T21:47:52.380Z,2.22
2022-09-02T21:50:25.404Z,2.00
2022-09-02T21:53:04.472Z,2.20
2022-09-02T21:55:49.767Z,2.00
2022-09-02T21:58:40.063Z,1.92
2022-09-02T22:01:19.039Z,2.25
2022-09-02T22:03:50.239Z,1.90
2022-09-02T22:06:23.835Z,2.28
2022-09-02T22:08:58.679Z,2.35
2022-09-02T22:11:34.308Z,2.00
2022-09-02T22:14:10.000Z,1.80
2022-09-02T22:16:50.556Z,2.10
2022-09-02T22:19:19.874Z,2.45
2022-09-02T22:21:50.593Z,2.42
2022-09-02T22:24:20.550Z,2.30
2022-09-02T22:26:53.091Z,2.38
2022-09-02T22:29:29.034Z,2.60
2022-09-02T22:32:01.497Z,2.70
2022-09-02T22:34:34.831Z,2.47
2022-09-02T22:37:07.839Z,2.72
2022-09-02T22:39:43.694Z,2.45
2022-09-02T22:42:21.340Z,2.60
2022-09-02T22:45:14.413Z,2.60
2022-09-02T22:48:11.990Z,2.30
2022-09-02T22:51:04.053Z,2.45
2022-09-02T22:53:32.525Z,2.65
2022-09-02T22:56:03.683Z,2.22
2022-09-02T22:58:51.990Z,2.33
2022-09-02T23:01:31.269Z,2.33
2022-09-02T23:04:19.687Z,2.30
2022-09-02T23:06:48.193Z,2.40
2022-09-02T23:09:18.545Z,2.05
2022-09-02T23:11:57.324Z,2.22
2022-09-02T23:14:35.607Z,2.30
2022-09-02T23:17:23.684Z,2.58
2022-09-02T23:20:06.233Z,2.55
2022-09-02T23:22:46.688Z,1.90
2022-09-02T23:25:33.510Z,1.95
2022-09-02T23:28:11.501Z,2.10
2022-09-02T23:30:52.414Z,1.90
2022-09-02T23:33:32.628Z,1.92
2022-09-02T23:36:12.767Z,2.20
2022-09-02T23:39:18.979Z,2.17
2022-09-02T23:41:47.827Z,2.08
2022-09-02T23:44:16.719Z,1.85
2022-09-02T23:46:52.974Z,1.90
2022-09-02T23:49:31.996Z,1.98
2022-09-02T23:52:09.750Z,1.80
2022-09-02T23:54:50.856Z,1.83
2022-09-02T23:57:40.511Z,1.90
